Four Corners Regional Airport
KFMN : now visible

Airfield :











YOU CAN JOIN US ON...

 
LOGIN :

Register | Disclaimer

   EN    FR    IT 

 









Legend :    VFR   Marginal VFR   IFR   Intensive IFR   Very Intensive IFR
Visi :
Ceiling :
>= 8 km
>= 3000ft
5 to 8 km
1000 to 3000 ft
1500m to 5 km
500 to 1000 ft
800 to 1500m
200 to 500 ft
< 800m
< 200 ft
Symbols :   Thunderstorms  Fog  Heavy snow  Heavy precipitations  Wind > 20 kt






- Airport Elevation : 5506 ft


KFMN - Four Corners Regional

CURRENT METAR :
  • 190653Z AUTO 08010KT 10SM FEW043 BKN055 OVC070 02/M09 A2995 RMK AO2 SLP144 T00221094 401001039

EXPIRED METARs :
  • 190553Z AUTO 01004KT 10SM BKN100 00/M11 A2995 RMK AO2 SLP150 T00001106 10083 20000 53012
  • 190453Z AUTO 04004KT 10SM CLR 01/M10 A2993 RMK AO2 SLP145 T00111100

TAF KFMN
Valid from the 19 at 06:00 until the 20 at 06:00 UTC


190538Z 1906/2006 11011KT P6SM VCSH SCT019 OVC050
TEMPO 1907/1911 11011G21KT 2SM -SN BR SCT009 OVC019
FM191100 11015G25KT 1SM -SN BR SCT002 OVC009
FM192000 11011KT 2SM -SN BR SCT009 BKN019
FM192300 09009KT P6SM SCT025 BKN040
FM200200 08008KT P6SM SCT040 BKN100
KZDV FIR / North America



MET'MAP, your aeronautical weather chart ! - Copyright ORBIFLY December 2007 - Disclaimer

ORBIFLY MET'MAP TEAM :

Programming & Development : Alexandra Zaïnal
Concept & original design : Baudouin d'Aumeries
Assistance for programming : Marc-Olivier Méhu
Technical & hardware support : Manuel Goepfert

Contact : metmap@orbifly.com




SOURCES & CREDITS :

   NOAA       Earth
Advisory